sensor_id;sensor_type;location;lat;lon;timestamp;P1;durP1;ratioP1;P2;durP2;ratioP2
77326;SDS011;66399;52.322;20.980;2023-05-10T00:01:14;10.30;;;3.70;;
77326;SDS011;66399;52.322;20.980;2023-05-10T00:05:19;9.50;;;3.80;;
77326;SDS011;66399;52.322;20.980;2023-05-10T00:09:24;8.00;;;3.40;;
77326;SDS011;66399;52.322;20.980;2023-05-10T00:13:31;8.50;;;3.40;;
77326;SDS011;66399;52.322;20.980;2023-05-10T00:17:36;6.60;;;3.20;;
77326;SDS011;66399;52.322;20.980;2023-05-10T00:25:45;7.50;;;3.60;;
77326;SDS011;66399;52.322;20.980;2023-05-10T00:29:50;6.70;;;3.10;;
77326;SDS011;66399;52.322;20.980;2023-05-10T00:33:55;7.60;;;3.40;;
77326;SDS011;66399;52.322;20.980;2023-05-10T00:38:00;5.40;;;3.10;;
77326;SDS011;66399;52.322;20.980;2023-05-10T00:42:06;7.70;;;3.70;;
77326;SDS011;66399;52.322;20.980;2023-05-10T00:46:11;8.30;;;3.50;;
77326;SDS011;66399;52.322;20.980;2023-05-10T00:50:16;6.70;;;3.20;;
77326;SDS011;66399;52.322;20.980;2023-05-10T00:54:21;6.30;;;3.10;;
77326;SDS011;66399;52.322;20.980;2023-05-10T00:58:27;6.30;;;3.20;;
77326;SDS011;66399;52.322;20.980;2023-05-10T01:02:34;5.70;;;3.20;;
77326;SDS011;66399;52.322;20.980;2023-05-10T01:06:40;7.30;;;3.00;;
77326;SDS011;66399;52.322;20.980;2023-05-10T01:10:45;8.80;;;3.10;;
77326;SDS011;66399;52.322;20.980;2023-05-10T01:14:55;6.90;;;3.40;;
77326;SDS011;66399;52.322;20.980;2023-05-10T01:36:21;6.10;;;2.80;;
77326;SDS011;66399;52.322;20.980;2023-05-10T01:40:32;7.80;;;3.50;;
77326;SDS011;66399;52.322;20.980;2023-05-10T01:44:39;10.00;;;3.20;;
77326;SDS011;66399;52.322;20.980;2023-05-10T01:48:47;6.00;;;2.90;;
77326;SDS011;66399;52.322;20.980;2023-05-10T01:52:53;7.90;;;3.30;;
77326;SDS011;66399;52.322;20.980;2023-05-10T01:57:00;7.70;;;3.50;;
77326;SDS011;66399;52.322;20.980;2023-05-10T02:01:06;8.20;;;3.40;;
77326;SDS011;66399;52.322;20.980;2023-05-10T02:05:13;8.20;;;3.20;;
77326;SDS011;66399;52.322;20.980;2023-05-10T02:09:19;10.90;;;4.10;;
77326;SDS011;66399;52.322;20.980;2023-05-10T02:13:24;7.80;;;3.60;;
77326;SDS011;66399;52.322;20.980;2023-05-10T02:17:30;8.60;;;3.90;;
77326;SDS011;66399;52.322;20.980;2023-05-10T02:21:36;8.60;;;4.10;;
77326;SDS011;66399;52.322;20.980;2023-05-10T02:29:45;10.80;;;3.70;;
77326;SDS011;66399;52.322;20.980;2023-05-10T02:33:51;8.10;;;3.50;;
77326;SDS011;66399;52.322;20.980;2023-05-10T02:37:58;9.50;;;3.70;;
77326;SDS011;66399;52.322;20.980;2023-05-10T02:42:03;9.00;;;3.90;;
77326;SDS011;66399;52.322;20.980;2023-05-10T02:46:09;7.40;;;3.30;;
77326;SDS011;66399;52.322;20.980;2023-05-10T02:50:14;7.20;;;3.60;;
77326;SDS011;66399;52.322;20.980;2023-05-10T02:58:24;7.70;;;3.90;;
77326;SDS011;66399;52.322;20.980;2023-05-10T03:02:29;10.10;;;3.80;;
77326;SDS011;66399;52.322;20.980;2023-05-10T03:10:41;7.20;;;3.40;;
77326;SDS011;66399;52.322;20.980;2023-05-10T03:14:53;6.60;;;3.30;;
77326;SDS011;66399;52.322;20.980;2023-05-10T03:19:01;7.60;;;3.30;;
77326;SDS011;66399;52.322;20.980;2023-05-10T03:23:13;9.30;;;3.00;;
77326;SDS011;66399;52.322;20.980;2023-05-10T03:27:25;9.30;;;3.30;;
77326;SDS011;66399;52.322;20.980;2023-05-10T03:31:30;7.90;;;3.20;;
77326;SDS011;66399;52.322;20.980;2023-05-10T03:35:36;7.00;;;2.90;;
77326;SDS011;66399;52.322;20.980;2023-05-10T03:39:41;7.60;;;3.30;;
77326;SDS011;66399;52.322;20.980;2023-05-10T03:43:46;7.20;;;3.10;;
77326;SDS011;66399;52.322;20.980;2023-05-10T03:47:51;6.50;;;3.30;;
77326;SDS011;66399;52.322;20.980;2023-05-10T03:51:57;7.90;;;3.10;;
77326;SDS011;66399;52.322;20.980;2023-05-10T03:56:02;11.00;;;3.20;;
77326;SDS011;66399;52.322;20.980;2023-05-10T04:00:08;5.70;;;2.80;;
77326;SDS011;66399;52.322;20.980;2023-05-10T04:04:13;6.50;;;3.00;;
77326;SDS011;66399;52.322;20.980;2023-05-10T04:08:18;6.50;;;2.70;;
77326;SDS011;66399;52.322;20.980;2023-05-10T04:12:23;7.60;;;2.60;;
77326;SDS011;66399;52.322;20.980;2023-05-10T04:16:29;6.90;;;2.50;;
77326;SDS011;66399;52.322;20.980;2023-05-10T04:20:34;5.60;;;2.60;;
77326;SDS011;66399;52.322;20.980;2023-05-10T04:24:39;6.30;;;2.80;;
77326;SDS011;66399;52.322;20.980;2023-05-10T04:28:44;5.90;;;2.00;;
77326;SDS011;66399;52.322;20.980;2023-05-10T04:32:49;5.00;;;2.10;;
77326;SDS011;66399;52.322;20.980;2023-05-10T04:36:54;5.60;;;2.40;;
77326;SDS011;66399;52.322;20.980;2023-05-10T04:41:06;5.80;;;2.60;;
77326;SDS011;66399;52.322;20.980;2023-05-10T04:45:11;5.00;;;2.30;;
77326;SDS011;66399;52.322;20.980;2023-05-10T04:49:18;5.50;;;2.30;;
77326;SDS011;66399;52.322;20.980;2023-05-10T04:57:27;5.60;;;1.90;;
77326;SDS011;66399;52.322;20.980;2023-05-10T05:01:33;7.70;;;2.70;;
77326;SDS011;66399;52.322;20.980;2023-05-10T05:05:38;5.80;;;2.00;;
77326;SDS011;66399;52.322;20.980;2023-05-10T05:09:43;5.90;;;2.40;;
77326;SDS011;66399;52.322;20.980;2023-05-10T05:13:48;5.00;;;2.20;;
77326;SDS011;66399;52.322;20.980;2023-05-10T05:17:53;5.50;;;2.30;;
77326;SDS011;66399;52.322;20.980;2023-05-10T05:21:58;3.20;;;1.80;;
77326;SDS011;66399;52.322;20.980;2023-05-10T05:26:04;4.50;;;2.20;;
77326;SDS011;66399;52.322;20.980;2023-05-10T05:30:09;4.30;;;2.10;;
77326;SDS011;66399;52.322;20.980;2023-05-10T05:34:15;5.60;;;2.40;;
77326;SDS011;66399;52.322;20.980;2023-05-10T05:38:20;5.20;;;2.20;;
77326;SDS011;66399;52.322;20.980;2023-05-10T05:42:25;4.40;;;2.20;;
77326;SDS011;66399;52.322;20.980;2023-05-10T05:46:30;3.50;;;1.80;;
77326;SDS011;66399;52.322;20.980;2023-05-10T05:54:39;6.60;;;2.20;;
77326;SDS011;66399;52.322;20.980;2023-05-10T05:58:44;5.30;;;1.90;;
77326;SDS011;66399;52.322;20.980;2023-05-10T06:02:50;6.00;;;1.90;;
77326;SDS011;66399;52.322;20.980;2023-05-10T06:10:59;4.60;;;1.90;;
77326;SDS011;66399;52.322;20.980;2023-05-10T06:15:04;5.70;;;2.10;;
77326;SDS011;66399;52.322;20.980;2023-05-10T06:19:09;4.30;;;2.30;;
77326;SDS011;66399;52.322;20.980;2023-05-10T06:23:14;4.40;;;2.20;;
77326;SDS011;66399;52.322;20.980;2023-05-10T06:27:19;7.40;;;2.10;;
77326;SDS011;66399;52.322;20.980;2023-05-10T06:31:25;3.60;;;1.60;;
77326;SDS011;66399;52.322;20.980;2023-05-10T06:39:35;3.90;;;2.00;;
77326;SDS011;66399;52.322;20.980;2023-05-10T06:43:40;4.30;;;2.00;;
77326;SDS011;66399;52.322;20.980;2023-05-10T06:47:47;4.60;;;1.80;;
77326;SDS011;66399;52.322;20.980;2023-05-10T06:51:52;4.90;;;1.70;;
77326;SDS011;66399;52.322;20.980;2023-05-10T06:55:58;3.60;;;1.70;;
77326;SDS011;66399;52.322;20.980;2023-05-10T07:00:05;6.70;;;2.00;;
77326;SDS011;66399;52.322;20.980;2023-05-10T07:04:10;5.30;;;2.00;;
77326;SDS011;66399;52.322;20.980;2023-05-10T07:08:15;4.40;;;1.50;;
77326;SDS011;66399;52.322;20.980;2023-05-10T07:12:20;4.00;;;1.80;;
77326;SDS011;66399;52.322;20.980;2023-05-10T07:16:26;3.20;;;1.60;;
77326;SDS011;66399;52.322;20.980;2023-05-10T07:20:31;3.90;;;1.80;;
77326;SDS011;66399;52.322;20.980;2023-05-10T07:24:36;5.40;;;1.60;;
77326;SDS011;66399;52.322;20.980;2023-05-10T07:28:41;4.10;;;1.80;;
77326;SDS011;66399;52.322;20.980;2023-05-10T07:32:46;3.10;;;1.50;;
77326;SDS011;66399;52.322;20.980;2023-05-10T07:36:52;5.50;;;1.60;;
77326;SDS011;66399;52.322;20.980;2023-05-10T07:40:57;4.70;;;1.80;;
77326;SDS011;66399;52.322;20.980;2023-05-10T07:45:02;2.50;;;1.30;;
77326;SDS011;66399;52.322;20.980;2023-05-10T07:49:07;3.80;;;1.60;;
77326;SDS011;66399;52.322;20.980;2023-05-10T07:53:13;4.70;;;2.10;;
77326;SDS011;66399;52.322;20.980;2023-05-10T07:57:18;3.40;;;1.90;;
77326;SDS011;66399;52.322;20.980;2023-05-10T08:01:24;7.00;;;1.80;;
77326;SDS011;66399;52.322;20.980;2023-05-10T08:05:29;2.50;;;1.30;;
77326;SDS011;66399;52.322;20.980;2023-05-10T08:09:37;8.70;;;1.90;;
77326;SDS011;66399;52.322;20.980;2023-05-10T08:13:43;8.30;;;2.50;;
77326;SDS011;66399;52.322;20.980;2023-05-10T08:17:48;2.70;;;1.30;;
77326;SDS011;66399;52.322;20.980;2023-05-10T08:21:53;3.60;;;1.60;;
77326;SDS011;66399;52.322;20.980;2023-05-10T08:25:59;4.10;;;1.70;;
77326;SDS011;66399;52.322;20.980;2023-05-10T08:30:05;2.40;;;1.40;;
77326;SDS011;66399;52.322;20.980;2023-05-10T08:34:10;2.80;;;1.40;;
77326;SDS011;66399;52.322;20.980;2023-05-10T08:38:16;6.50;;;1.70;;
77326;SDS011;66399;52.322;20.980;2023-05-10T08:42:21;2.60;;;1.40;;
77326;SDS011;66399;52.322;20.980;2023-05-10T08:46:27;4.90;;;1.90;;
77326;SDS011;66399;52.322;20.980;2023-05-10T08:50:34;5.00;;;1.50;;
77326;SDS011;66399;52.322;20.980;2023-05-10T08:54:40;4.10;;;1.60;;
77326;SDS011;66399;52.322;20.980;2023-05-10T08:58:46;6.50;;;1.80;;
77326;SDS011;66399;52.322;20.980;2023-05-10T09:02:52;4.20;;;1.50;;
77326;SDS011;66399;52.322;20.980;2023-05-10T09:06:58;4.50;;;1.60;;
77326;SDS011;66399;52.322;20.980;2023-05-10T09:11:04;5.60;;;1.50;;
77326;SDS011;66399;52.322;20.980;2023-05-10T09:15:09;3.10;;;1.60;;
77326;SDS011;66399;52.322;20.980;2023-05-10T09:19:14;3.40;;;1.90;;
77326;SDS011;66399;52.322;20.980;2023-05-10T09:23:20;5.80;;;1.90;;
77326;SDS011;66399;52.322;20.980;2023-05-10T09:27:27;6.30;;;1.70;;
77326;SDS011;66399;52.322;20.980;2023-05-10T09:31:46;5.50;;;2.20;;
77326;SDS011;66399;52.322;20.980;2023-05-10T09:35:52;5.50;;;2.00;;
77326;SDS011;66399;52.322;20.980;2023-05-10T09:40:00;5.70;;;1.70;;
77326;SDS011;66399;52.322;20.980;2023-05-10T09:44:08;3.10;;;1.70;;
77326;SDS011;66399;52.322;20.980;2023-05-10T09:48:15;2.80;;;1.50;;
77326;SDS011;66399;52.322;20.980;2023-05-10T09:52:20;5.10;;;1.70;;
77326;SDS011;66399;52.322;20.980;2023-05-10T09:56:34;5.00;;;2.10;;
77326;SDS011;66399;52.322;20.980;2023-05-10T10:00:41;4.20;;;1.70;;
77326;SDS011;66399;52.322;20.980;2023-05-10T10:04:47;7.50;;;1.80;;
77326;SDS011;66399;52.322;20.980;2023-05-10T10:08:53;4.00;;;1.90;;
77326;SDS011;66399;52.322;20.980;2023-05-10T10:12:59;3.20;;;1.50;;
77326;SDS011;66399;52.322;20.980;2023-05-10T10:17:05;4.20;;;2.20;;
77326;SDS011;66399;52.322;20.980;2023-05-10T10:21:12;4.90;;;1.70;;
77326;SDS011;66399;52.322;20.980;2023-05-10T10:25:18;6.80;;;1.90;;
77326;SDS011;66399;52.322;20.980;2023-05-10T10:29:26;3.90;;;1.80;;
77326;SDS011;66399;52.322;20.980;2023-05-10T10:33:36;3.70;;;1.90;;
77326;SDS011;66399;52.322;20.980;2023-05-10T10:37:46;5.50;;;1.90;;
77326;SDS011;66399;52.322;20.980;2023-05-10T10:41:52;2.90;;;1.70;;
77326;SDS011;66399;52.322;20.980;2023-05-10T10:50:17;2.60;;;1.40;;
77326;SDS011;66399;52.322;20.980;2023-05-10T10:54:27;3.50;;;2.00;;
77326;SDS011;66399;52.322;20.980;2023-05-10T10:58:33;3.40;;;1.70;;
77326;SDS011;66399;52.322;20.980;2023-05-10T11:02:44;5.80;;;2.00;;
77326;SDS011;66399;52.322;20.980;2023-05-10T11:06:52;7.80;;;1.90;;
77326;SDS011;66399;52.322;20.980;2023-05-10T11:11:17;5.00;;;1.80;;
77326;SDS011;66399;52.322;20.980;2023-05-10T11:15:29;4.20;;;1.70;;
77326;SDS011;66399;52.322;20.980;2023-05-10T11:19:35;3.80;;;1.80;;
77326;SDS011;66399;52.322;20.980;2023-05-10T11:23:49;6.20;;;2.00;;
77326;SDS011;66399;52.322;20.980;2023-05-10T11:27:54;5.50;;;1.90;;
77326;SDS011;66399;52.322;20.980;2023-05-10T11:32:00;4.90;;;2.20;;
77326;SDS011;66399;52.322;20.980;2023-05-10T11:36:06;4.60;;;1.80;;
77326;SDS011;66399;52.322;20.980;2023-05-10T11:40:15;6.90;;;1.90;;
77326;SDS011;66399;52.322;20.980;2023-05-10T11:44:20;5.80;;;1.90;;
77326;SDS011;66399;52.322;20.980;2023-05-10T11:48:26;4.60;;;1.70;;
77326;SDS011;66399;52.322;20.980;2023-05-10T11:52:34;6.30;;;2.20;;
77326;SDS011;66399;52.322;20.980;2023-05-10T11:56:40;7.70;;;2.10;;
77326;SDS011;66399;52.322;20.980;2023-05-10T12:00:45;5.20;;;1.90;;
77326;SDS011;66399;52.322;20.980;2023-05-10T12:04:51;7.20;;;2.00;;
77326;SDS011;66399;52.322;20.980;2023-05-10T12:08:56;4.80;;;1.90;;
77326;SDS011;66399;52.322;20.980;2023-05-10T12:13:01;6.80;;;2.00;;
77326;SDS011;66399;52.322;20.980;2023-05-10T12:17:07;6.60;;;1.80;;
77326;SDS011;66399;52.322;20.980;2023-05-10T12:21:16;3.70;;;1.70;;
77326;SDS011;66399;52.322;20.980;2023-05-10T12:25:22;7.50;;;2.00;;
77326;SDS011;66399;52.322;20.980;2023-05-10T12:29:29;7.40;;;2.00;;
77326;SDS011;66399;52.322;20.980;2023-05-10T12:33:38;6.80;;;2.00;;
77326;SDS011;66399;52.322;20.980;2023-05-10T12:37:45;4.50;;;1.70;;
77326;SDS011;66399;52.322;20.980;2023-05-10T12:41:50;6.00;;;1.90;;
77326;SDS011;66399;52.322;20.980;2023-05-10T12:45:55;6.20;;;1.90;;
77326;SDS011;66399;52.322;20.980;2023-05-10T12:50:01;6.50;;;2.10;;
77326;SDS011;66399;52.322;20.980;2023-05-10T12:54:06;5.40;;;1.90;;
77326;SDS011;66399;52.322;20.980;2023-05-10T12:58:11;5.70;;;1.90;;
77326;SDS011;66399;52.322;20.980;2023-05-10T13:02:23;4.20;;;1.70;;
77326;SDS011;66399;52.322;20.980;2023-05-10T13:06:29;7.10;;;2.20;;
77326;SDS011;66399;52.322;20.980;2023-05-10T13:10:34;4.90;;;1.90;;
77326;SDS011;66399;52.322;20.980;2023-05-10T13:14:39;5.50;;;1.60;;
77326;SDS011;66399;52.322;20.980;2023-05-10T13:18:45;4.10;;;1.90;;
77326;SDS011;66399;52.322;20.980;2023-05-10T13:22:50;3.80;;;1.80;;
77326;SDS011;66399;52.322;20.980;2023-05-10T13:26:55;6.60;;;1.90;;
77326;SDS011;66399;52.322;20.980;2023-05-10T13:31:00;4.50;;;1.70;;
77326;SDS011;66399;52.322;20.980;2023-05-10T13:35:06;3.90;;;2.10;;
77326;SDS011;66399;52.322;20.980;2023-05-10T13:39:11;4.50;;;1.90;;
77326;SDS011;66399;52.322;20.980;2023-05-10T13:43:16;2.70;;;1.70;;
77326;SDS011;66399;52.322;20.980;2023-05-10T13:47:22;4.60;;;2.00;;
77326;SDS011;66399;52.322;20.980;2023-05-10T13:51:27;10.10;;;2.20;;
77326;SDS011;66399;52.322;20.980;2023-05-10T13:55:32;4.60;;;1.90;;
77326;SDS011;66399;52.322;20.980;2023-05-10T13:59:42;5.40;;;2.20;;
77326;SDS011;66399;52.322;20.980;2023-05-10T14:03:47;5.30;;;2.10;;
77326;SDS011;66399;52.322;20.980;2023-05-10T14:07:53;4.70;;;2.20;;
77326;SDS011;66399;52.322;20.980;2023-05-10T14:11:58;3.70;;;1.60;;
77326;SDS011;66399;52.322;20.980;2023-05-10T14:16:03;4.60;;;2.00;;
77326;SDS011;66399;52.322;20.980;2023-05-10T14:20:09;5.50;;;2.10;;
77326;SDS011;66399;52.322;20.980;2023-05-10T14:24:15;6.70;;;3.00;;
77326;SDS011;66399;52.322;20.980;2023-05-10T14:28:20;5.20;;;2.60;;
77326;SDS011;66399;52.322;20.980;2023-05-10T14:32:26;5.20;;;2.30;;
77326;SDS011;66399;52.322;20.980;2023-05-10T14:36:32;4.80;;;1.90;;
77326;SDS011;66399;52.322;20.980;2023-05-10T14:40:37;2.80;;;1.50;;
77326;SDS011;66399;52.322;20.980;2023-05-10T14:44:42;4.70;;;1.70;;
77326;SDS011;66399;52.322;20.980;2023-05-10T14:48:47;4.40;;;1.70;;
77326;SDS011;66399;52.322;20.980;2023-05-10T14:52:52;3.90;;;1.90;;
77326;SDS011;66399;52.322;20.980;2023-05-10T14:56:57;3.60;;;1.60;;
77326;SDS011;66399;52.322;20.980;2023-05-10T15:01:04;4.00;;;2.10;;
77326;SDS011;66399;52.322;20.980;2023-05-10T15:05:10;3.10;;;2.00;;
77326;SDS011;66399;52.322;20.980;2023-05-10T15:09:15;3.40;;;1.80;;
77326;SDS011;66399;52.322;20.980;2023-05-10T15:13:20;5.70;;;2.10;;
77326;SDS011;66399;52.322;20.980;2023-05-10T15:17:26;4.20;;;1.80;;
77326;SDS011;66399;52.322;20.980;2023-05-10T15:21:31;4.70;;;1.90;;
77326;SDS011;66399;52.322;20.980;2023-05-10T15:25:42;4.40;;;1.80;;
77326;SDS011;66399;52.322;20.980;2023-05-10T15:29:47;4.00;;;1.50;;
77326;SDS011;66399;52.322;20.980;2023-05-10T15:33:52;3.60;;;2.10;;
77326;SDS011;66399;52.322;20.980;2023-05-10T15:38:01;5.00;;;2.20;;
77326;SDS011;66399;52.322;20.980;2023-05-10T15:42:06;5.30;;;2.00;;
77326;SDS011;66399;52.322;20.980;2023-05-10T15:46:11;3.60;;;1.90;;
77326;SDS011;66399;52.322;20.980;2023-05-10T15:50:17;5.30;;;1.90;;
77326;SDS011;66399;52.322;20.980;2023-05-10T15:54:22;4.80;;;2.00;;
77326;SDS011;66399;52.322;20.980;2023-05-10T15:58:27;3.10;;;1.70;;
77326;SDS011;66399;52.322;20.980;2023-05-10T16:02:32;4.70;;;1.80;;
77326;SDS011;66399;52.322;20.980;2023-05-10T16:06:37;5.90;;;2.30;;
77326;SDS011;66399;52.322;20.980;2023-05-10T16:10:42;4.50;;;1.60;;
77326;SDS011;66399;52.322;20.980;2023-05-10T16:14:47;3.10;;;1.70;;
77326;SDS011;66399;52.322;20.980;2023-05-10T16:18:53;6.00;;;2.20;;
77326;SDS011;66399;52.322;20.980;2023-05-10T16:22:58;2.90;;;1.70;;
77326;SDS011;66399;52.322;20.980;2023-05-10T16:27:07;3.70;;;1.70;;
77326;SDS011;66399;52.322;20.980;2023-05-10T16:31:12;4.90;;;1.80;;
77326;SDS011;66399;52.322;20.980;2023-05-10T16:35:18;3.40;;;1.40;;
77326;SDS011;66399;52.322;20.980;2023-05-10T16:44:01;4.10;;;1.80;;
77326;SDS011;66399;52.322;20.980;2023-05-10T16:48:07;3.60;;;1.90;;
77326;SDS011;66399;52.322;20.980;2023-05-10T16:52:12;2.50;;;1.30;;
77326;SDS011;66399;52.322;20.980;2023-05-10T17:00:53;2.10;;;1.50;;
77326;SDS011;66399;52.322;20.980;2023-05-10T17:04:58;3.10;;;1.60;;
77326;SDS011;66399;52.322;20.980;2023-05-10T17:09:03;3.40;;;1.40;;
77326;SDS011;66399;52.322;20.980;2023-05-10T17:13:10;4.20;;;2.00;;
77326;SDS011;66399;52.322;20.980;2023-05-10T17:30:55;3.20;;;1.70;;
77326;SDS011;66399;52.322;20.980;2023-05-10T17:35:01;4.00;;;1.30;;
77326;SDS011;66399;52.322;20.980;2023-05-10T17:39:06;5.90;;;1.40;;
77326;SDS011;66399;52.322;20.980;2023-05-10T17:43:21;3.20;;;1.80;;
77326;SDS011;66399;52.322;20.980;2023-05-10T17:47:26;2.90;;;1.40;;
77326;SDS011;66399;52.322;20.980;2023-05-10T17:51:39;4.60;;;1.80;;
77326;SDS011;66399;52.322;20.980;2023-05-10T17:55:46;4.10;;;1.50;;
77326;SDS011;66399;52.322;20.980;2023-05-10T17:59:52;5.90;;;1.60;;
77326;SDS011;66399;52.322;20.980;2023-05-10T18:04:31;3.30;;;1.50;;
77326;SDS011;66399;52.322;20.980;2023-05-10T18:08:37;4.80;;;2.70;;
77326;SDS011;66399;52.322;20.980;2023-05-10T18:12:42;4.80;;;1.60;;
77326;SDS011;66399;52.322;20.980;2023-05-10T18:16:47;3.40;;;1.70;;
77326;SDS011;66399;52.322;20.980;2023-05-10T18:20:53;3.40;;;1.80;;
77326;SDS011;66399;52.322;20.980;2023-05-10T18:25:00;3.00;;;1.60;;
77326;SDS011;66399;52.322;20.980;2023-05-10T18:29:06;4.20;;;1.70;;
77326;SDS011;66399;52.322;20.980;2023-05-10T18:33:11;7.10;;;2.50;;
77326;SDS011;66399;52.322;20.980;2023-05-10T18:37:16;4.20;;;2.20;;
77326;SDS011;66399;52.322;20.980;2023-05-10T18:41:21;6.90;;;2.60;;
77326;SDS011;66399;52.322;20.980;2023-05-10T18:45:29;5.30;;;2.10;;
77326;SDS011;66399;52.322;20.980;2023-05-10T18:49:34;6.50;;;2.20;;
77326;SDS011;66399;52.322;20.980;2023-05-10T18:53:39;4.10;;;1.90;;
77326;SDS011;66399;52.322;20.980;2023-05-10T18:57:44;8.50;;;2.20;;
77326;SDS011;66399;52.322;20.980;2023-05-10T19:01:50;4.10;;;2.30;;
77326;SDS011;66399;52.322;20.980;2023-05-10T19:05:57;3.40;;;1.80;;
77326;SDS011;66399;52.322;20.980;2023-05-10T19:10:03;4.20;;;2.10;;
77326;SDS011;66399;52.322;20.980;2023-05-10T19:14:08;3.20;;;1.80;;
77326;SDS011;66399;52.322;20.980;2023-05-10T19:18:13;4.20;;;2.30;;
77326;SDS011;66399;52.322;20.980;2023-05-10T19:22:19;5.00;;;2.30;;
77326;SDS011;66399;52.322;20.980;2023-05-10T19:26:44;5.20;;;2.40;;
77326;SDS011;66399;52.322;20.980;2023-05-10T19:30:51;4.40;;;2.00;;
77326;SDS011;66399;52.322;20.980;2023-05-10T19:34:56;6.60;;;2.60;;
77326;SDS011;66399;52.322;20.980;2023-05-10T19:39:01;5.90;;;2.80;;
77326;SDS011;66399;52.322;20.980;2023-05-10T19:43:06;8.00;;;2.50;;
77326;SDS011;66399;52.322;20.980;2023-05-10T19:47:12;6.90;;;2.30;;
77326;SDS011;66399;52.322;20.980;2023-05-10T19:51:17;5.20;;;2.40;;
77326;SDS011;66399;52.322;20.980;2023-05-10T19:55:26;6.60;;;3.00;;
77326;SDS011;66399;52.322;20.980;2023-05-10T19:59:31;6.40;;;3.00;;
77326;SDS011;66399;52.322;20.980;2023-05-10T20:03:36;6.10;;;2.80;;
77326;SDS011;66399;52.322;20.980;2023-05-10T20:07:41;5.20;;;2.50;;
77326;SDS011;66399;52.322;20.980;2023-05-10T20:11:47;7.80;;;2.80;;
77326;SDS011;66399;52.322;20.980;2023-05-10T20:15:55;5.70;;;2.60;;
77326;SDS011;66399;52.322;20.980;2023-05-10T20:20:00;6.80;;;2.80;;
77326;SDS011;66399;52.322;20.980;2023-05-10T20:24:05;6.50;;;2.60;;
77326;SDS011;66399;52.322;20.980;2023-05-10T20:28:11;5.60;;;2.50;;
77326;SDS011;66399;52.322;20.980;2023-05-10T20:36:19;8.90;;;3.00;;
77326;SDS011;66399;52.322;20.980;2023-05-10T20:40:26;6.20;;;2.80;;
77326;SDS011;66399;52.322;20.980;2023-05-10T20:48:35;8.20;;;4.00;;
77326;SDS011;66399;52.322;20.980;2023-05-10T20:56:44;9.60;;;4.10;;
77326;SDS011;66399;52.322;20.980;2023-05-10T21:04:52;9.30;;;4.70;;
77326;SDS011;66399;52.322;20.980;2023-05-10T21:09:00;5.50;;;3.10;;
77326;SDS011;66399;52.322;20.980;2023-05-10T21:17:09;7.50;;;3.70;;
77326;SDS011;66399;52.322;20.980;2023-05-10T21:21:14;9.60;;;4.70;;
77326;SDS011;66399;52.322;20.980;2023-05-10T21:25:20;10.20;;;4.90;;
77326;SDS011;66399;52.322;20.980;2023-05-10T21:29:25;13.00;;;5.90;;
77326;SDS011;66399;52.322;20.980;2023-05-10T21:33:31;7.00;;;3.60;;
77326;SDS011;66399;52.322;20.980;2023-05-10T21:37:36;6.20;;;2.70;;
77326;SDS011;66399;52.322;20.980;2023-05-10T21:41:41;6.20;;;2.70;;
77326;SDS011;66399;52.322;20.980;2023-05-10T21:45:46;5.70;;;2.50;;
77326;SDS011;66399;52.322;20.980;2023-05-10T21:53:55;4.90;;;2.20;;
77326;SDS011;66399;52.322;20.980;2023-05-10T21:58:00;4.80;;;2.00;;
77326;SDS011;66399;52.322;20.980;2023-05-10T22:02:05;4.90;;;2.50;;
77326;SDS011;66399;52.322;20.980;2023-05-10T22:06:11;3.80;;;2.10;;
77326;SDS011;66399;52.322;20.980;2023-05-10T22:10:16;4.40;;;2.20;;
77326;SDS011;66399;52.322;20.980;2023-05-10T22:14:22;4.40;;;2.20;;
77326;SDS011;66399;52.322;20.980;2023-05-10T22:18:27;4.40;;;2.10;;
77326;SDS011;66399;52.322;20.980;2023-05-10T22:26:35;4.50;;;2.00;;
77326;SDS011;66399;52.322;20.980;2023-05-10T22:30:41;5.90;;;2.30;;
77326;SDS011;66399;52.322;20.980;2023-05-10T22:34:46;4.20;;;2.10;;
77326;SDS011;66399;52.322;20.980;2023-05-10T22:38:52;3.20;;;1.80;;
77326;SDS011;66399;52.322;20.980;2023-05-10T22:47:00;4.40;;;1.80;;
77326;SDS011;66399;52.322;20.980;2023-05-10T22:51:05;4.00;;;2.10;;
77326;SDS011;66399;52.322;20.980;2023-05-10T22:55:10;4.30;;;2.20;;
77326;SDS011;66399;52.322;20.980;2023-05-10T22:59:15;3.60;;;2.20;;
77326;SDS011;66399;52.322;20.980;2023-05-10T23:03:21;5.10;;;2.60;;
77326;SDS011;66399;52.322;20.980;2023-05-10T23:07:26;3.90;;;2.10;;
77326;SDS011;66399;52.322;20.980;2023-05-10T23:11:31;4.10;;;2.00;;
77326;SDS011;66399;52.322;20.980;2023-05-10T23:15:36;4.50;;;2.00;;
77326;SDS011;66399;52.322;20.980;2023-05-10T23:19:42;4.70;;;2.00;;
77326;SDS011;66399;52.322;20.980;2023-05-10T23:23:48;4.50;;;1.90;;
77326;SDS011;66399;52.322;20.980;2023-05-10T23:31:56;4.20;;;1.90;;
77326;SDS011;66399;52.322;20.980;2023-05-10T23:36:02;5.20;;;2.00;;
77326;SDS011;66399;52.322;20.980;2023-05-10T23:40:08;5.20;;;2.10;;
77326;SDS011;66399;52.322;20.980;2023-05-10T23:44:13;5.00;;;2.00;;
77326;SDS011;66399;52.322;20.980;2023-05-10T23:48:19;3.70;;;1.90;;
77326;SDS011;66399;52.322;20.980;2023-05-10T23:52:25;3.70;;;1.50;;
